createdAt,value
2022-11-23T10:07:48.350Z,6.20
2022-11-23T10:12:51.098Z,6.30
2022-11-23T10:43:52.232Z,6.80
2022-11-23T10:48:47.477Z,6.90
2022-11-23T10:53:43.150Z,6.90
2022-11-23T10:58:47.354Z,7.00
2022-11-23T11:17:00.613Z,7.30
2022-11-23T11:21:55.825Z,7.40
2022-11-23T11:26:52.440Z,7.50
2022-11-23T11:31:53.359Z,7.60
2022-11-23T11:36:53.757Z,7.60
2022-11-23T11:41:50.181Z,7.60
2022-11-23T11:46:48.185Z,7.70
2022-11-23T11:51:47.231Z,7.70
2022-11-23T11:56:45.412Z,7.80
2022-11-23T12:01:46.376Z,7.90
2022-11-23T12:06:44.480Z,8.00
2022-11-23T12:11:38.367Z,8.10
2022-11-23T12:16:43.064Z,8.30
2022-11-23T12:22:03.766Z,8.40
2022-11-23T12:27:03.612Z,8.40
2022-11-23T12:32:08.244Z,8.50
2022-11-23T12:37:16.625Z,8.40
2022-11-23T12:42:19.598Z,8.50
2022-11-23T12:47:26.263Z,8.50
2022-11-23T12:52:36.494Z,8.50
2022-11-23T12:57:33.613Z,8.70
2022-11-23T13:02:54.402Z,8.80
2022-11-23T13:08:08.371Z,8.90
2022-11-23T13:13:33.621Z,8.90
2022-11-23T13:18:43.676Z,8.90
2022-11-23T13:23:38.762Z,8.90
2022-11-23T13:28:32.986Z,8.80
2022-11-23T13:33:34.224Z,9.10
2022-11-23T13:38:41.501Z,9.40
2022-11-23T13:43:38.461Z,9.20
2022-11-23T13:48:55.356Z,9.00
2022-11-23T13:53:54.508Z,8.90
2022-11-23T13:58:58.034Z,8.80
2022-11-23T14:03:56.132Z,8.60
